sensor_id;sensor_type;location;lat;lon;timestamp;P1;durP1;ratioP1;P2;durP2;ratioP2
8540;SDS011;4308;51.294;6.590;2022-08-11T00:01:46;1.30;;;1.20;;
8540;SDS011;4308;51.294;6.590;2022-08-11T00:04:14;3.83;;;1.80;;
8540;SDS011;4308;51.294;6.590;2022-08-11T00:06:43;4.67;;;1.53;;
8540;SDS011;4308;51.294;6.590;2022-08-11T00:09:12;2.20;;;1.50;;
8540;SDS011;4308;51.294;6.590;2022-08-11T00:11:43;2.13;;;1.57;;
8540;SDS011;4308;51.294;6.590;2022-08-11T00:14:13;2.23;;;1.33;;
8540;SDS011;4308;51.294;6.590;2022-08-11T00:16:41;3.23;;;1.53;;
8540;SDS011;4308;51.294;6.590;2022-08-11T00:19:10;4.00;;;1.83;;
8540;SDS011;4308;51.294;6.590;2022-08-11T00:21:40;2.33;;;1.60;;
8540;SDS011;4308;51.294;6.590;2022-08-11T00:24:34;2.47;;;1.60;;
8540;SDS011;4308;51.294;6.590;2022-08-11T00:27:19;2.43;;;1.50;;
8540;SDS011;4308;51.294;6.590;2022-08-11T00:29:53;3.13;;;1.60;;
8540;SDS011;4308;51.294;6.590;2022-08-11T00:32:20;17.83;;;2.13;;
8540;SDS011;4308;51.294;6.590;2022-08-11T00:34:48;2.53;;;1.53;;
8540;SDS011;4308;51.294;6.590;2022-08-11T00:37:20;3.83;;;1.30;;
8540;SDS011;4308;51.294;6.590;2022-08-11T00:39:49;5.20;;;1.87;;
8540;SDS011;4308;51.294;6.590;2022-08-11T00:42:22;3.83;;;2.13;;
8540;SDS011;4308;51.294;6.590;2022-08-11T00:57:50;3.77;;;2.07;;
8540;SDS011;4308;51.294;6.590;2022-08-11T01:00:20;3.40;;;1.73;;
8540;SDS011;4308;51.294;6.590;2022-08-11T01:11:31;1.93;;;1.80;;
8540;SDS011;4308;51.294;6.590;2022-08-11T01:24:39;4.00;;;1.93;;
8540;SDS011;4308;51.294;6.590;2022-08-11T01:27:23;5.07;;;1.50;;
8540;SDS011;4308;51.294;6.590;2022-08-11T01:30:16;5.33;;;1.50;;
8540;SDS011;4308;51.294;6.590;2022-08-11T01:33:01;3.63;;;1.77;;
8540;SDS011;4308;51.294;6.590;2022-08-11T01:40:51;2.00;;;1.60;;
8540;SDS011;4308;51.294;6.590;2022-08-11T01:43:29;2.30;;;1.70;;
8540;SDS011;4308;51.294;6.590;2022-08-11T01:46:03;3.90;;;1.87;;
8540;SDS011;4308;51.294;6.590;2022-08-11T01:48:42;3.97;;;1.80;;
8540;SDS011;4308;51.294;6.590;2022-08-11T01:59:00;4.17;;;1.90;;
8540;SDS011;4308;51.294;6.590;2022-08-11T02:01:40;2.10;;;1.73;;
8540;SDS011;4308;51.294;6.590;2022-08-11T02:04:22;4.27;;;2.10;;
8540;SDS011;4308;51.294;6.590;2022-08-11T02:07:48;3.73;;;1.70;;
8540;SDS011;4308;51.294;6.590;2022-08-11T02:09:59;4.03;;;2.00;;
8540;SDS011;4308;51.294;6.590;2022-08-11T02:12:49;4.00;;;1.97;;
8540;SDS011;4308;51.294;6.590;2022-08-11T02:20:34;1.93;;;1.80;;
8540;SDS011;4308;51.294;6.590;2022-08-11T02:23:05;6.73;;;1.83;;
8540;SDS011;4308;51.294;6.590;2022-08-11T02:25:54;4.90;;;2.10;;
8540;SDS011;4308;51.294;6.590;2022-08-11T02:28:26;3.70;;;1.90;;
8540;SDS011;4308;51.294;6.590;2022-08-11T02:31:10;3.47;;;2.03;;
8540;SDS011;4308;51.294;6.590;2022-08-11T02:34:05;1.73;;;1.60;;
8540;SDS011;4308;51.294;6.590;2022-08-11T02:36:40;2.03;;;1.73;;
8540;SDS011;4308;51.294;6.590;2022-08-11T02:39:10;2.83;;;2.00;;
8540;SDS011;4308;51.294;6.590;2022-08-11T02:47:20;3.90;;;2.20;;
8540;SDS011;4308;51.294;6.590;2022-08-11T02:58:28;2.50;;;1.80;;
8540;SDS011;4308;51.294;6.590;2022-08-11T03:01:15;3.00;;;1.70;;
8540;SDS011;4308;51.294;6.590;2022-08-11T03:03:49;2.90;;;1.80;;
8540;SDS011;4308;51.294;6.590;2022-08-11T03:06:23;3.80;;;2.20;;
8540;SDS011;4308;51.294;6.590;2022-08-11T03:16:51;3.07;;;1.90;;
8540;SDS011;4308;51.294;6.590;2022-08-11T03:22:09;7.50;;;2.23;;
8540;SDS011;4308;51.294;6.590;2022-08-11T03:25:02;10.00;;;2.50;;
8540;SDS011;4308;51.294;6.590;2022-08-11T03:27:49;2.53;;;1.53;;
8540;SDS011;4308;51.294;6.590;2022-08-11T03:30:26;4.53;;;2.10;;
8540;SDS011;4308;51.294;6.590;2022-08-11T03:33:05;3.07;;;1.73;;
8540;SDS011;4308;51.294;6.590;2022-08-11T03:35:36;6.07;;;2.03;;
8540;SDS011;4308;51.294;6.590;2022-08-11T03:38:06;2.43;;;1.90;;
8540;SDS011;4308;51.294;6.590;2022-08-11T03:43:21;5.50;;;2.10;;
8540;SDS011;4308;51.294;6.590;2022-08-11T03:46:03;6.50;;;2.00;;
8540;SDS011;4308;51.294;6.590;2022-08-11T03:51:10;3.87;;;1.80;;
8540;SDS011;4308;51.294;6.590;2022-08-11T04:01:57;3.13;;;2.20;;
8540;SDS011;4308;51.294;6.590;2022-08-11T04:07:22;4.20;;;2.17;;
8540;SDS011;4308;51.294;6.590;2022-08-11T04:12:48;2.57;;;2.20;;
8540;SDS011;4308;51.294;6.590;2022-08-11T04:26:35;5.13;;;2.30;;
8540;SDS011;4308;51.294;6.590;2022-08-11T04:31:56;6.00;;;2.93;;
8540;SDS011;4308;51.294;6.590;2022-08-11T04:34:40;2.77;;;2.10;;
8540;SDS011;4308;51.294;6.590;2022-08-11T04:37:19;3.97;;;1.90;;
8540;SDS011;4308;51.294;6.590;2022-08-11T04:51:14;7.77;;;2.73;;
8540;SDS011;4308;51.294;6.590;2022-08-11T04:56:21;4.80;;;2.30;;
8540;SDS011;4308;51.294;6.590;2022-08-11T05:07:13;4.23;;;2.33;;
8540;SDS011;4308;51.294;6.590;2022-08-11T05:09:59;3.37;;;2.33;;
8540;SDS011;4308;51.294;6.590;2022-08-11T05:12:45;8.17;;;2.90;;
8540;SDS011;4308;51.294;6.590;2022-08-11T05:15:15;5.43;;;2.70;;
8540;SDS011;4308;51.294;6.590;2022-08-11T05:20:46;9.70;;;2.70;;
8540;SDS011;4308;51.294;6.590;2022-08-11T05:23:31;5.17;;;2.27;;
8540;SDS011;4308;51.294;6.590;2022-08-11T05:26:04;5.43;;;2.20;;
8540;SDS011;4308;51.294;6.590;2022-08-11T05:29:00;5.27;;;2.40;;
8540;SDS011;4308;51.294;6.590;2022-08-11T05:31:45;3.30;;;2.30;;
8540;SDS011;4308;51.294;6.590;2022-08-11T05:34:27;7.63;;;2.70;;
8540;SDS011;4308;51.294;6.590;2022-08-11T05:37:06;13.57;;;2.47;;
8540;SDS011;4308;51.294;6.590;2022-08-11T05:39:53;2.77;;;1.73;;
8540;SDS011;4308;51.294;6.590;2022-08-11T05:42:22;13.87;;;3.40;;
8540;SDS011;4308;51.294;6.590;2022-08-11T05:44:57;8.67;;;2.80;;
8540;SDS011;4308;51.294;6.590;2022-08-11T05:47:26;6.03;;;2.40;;
8540;SDS011;4308;51.294;6.590;2022-08-11T05:49:53;3.53;;;2.40;;
8540;SDS011;4308;51.294;6.590;2022-08-11T05:52:24;6.20;;;2.40;;
8540;SDS011;4308;51.294;6.590;2022-08-11T05:55:04;6.80;;;2.57;;
8540;SDS011;4308;51.294;6.590;2022-08-11T05:57:35;4.37;;;3.00;;
8540;SDS011;4308;51.294;6.590;2022-08-11T06:00:16;4.30;;;2.90;;
8540;SDS011;4308;51.294;6.590;2022-08-11T06:02:55;7.57;;;2.73;;
8540;SDS011;4308;51.294;6.590;2022-08-11T06:05:24;8.70;;;2.30;;
8540;SDS011;4308;51.294;6.590;2022-08-11T06:08:04;7.47;;;2.47;;
8540;SDS011;4308;51.294;6.590;2022-08-11T06:10:36;3.00;;;2.30;;
8540;SDS011;4308;51.294;6.590;2022-08-11T06:13:04;7.13;;;2.83;;
8540;SDS011;4308;51.294;6.590;2022-08-11T06:15:33;7.97;;;3.13;;
8540;SDS011;4308;51.294;6.590;2022-08-11T06:18:10;7.43;;;3.37;;
8540;SDS011;4308;51.294;6.590;2022-08-11T06:20:45;6.30;;;2.73;;
8540;SDS011;4308;51.294;6.590;2022-08-11T06:23:13;13.87;;;2.60;;
8540;SDS011;4308;51.294;6.590;2022-08-11T06:25:41;12.20;;;2.87;;
8540;SDS011;4308;51.294;6.590;2022-08-11T06:28:09;8.43;;;2.73;;
8540;SDS011;4308;51.294;6.590;2022-08-11T06:33:12;13.47;;;3.33;;
8540;SDS011;4308;51.294;6.590;2022-08-11T06:40:56;15.43;;;3.40;;
8540;SDS011;4308;51.294;6.590;2022-08-11T06:43:24;25.43;;;4.17;;
8540;SDS011;4308;51.294;6.590;2022-08-11T06:48:26;23.77;;;4.67;;
8540;SDS011;4308;51.294;6.590;2022-08-11T06:51:03;18.10;;;3.70;;
8540;SDS011;4308;51.294;6.590;2022-08-11T06:53:34;15.70;;;3.63;;
8540;SDS011;4308;51.294;6.590;2022-08-11T06:56:04;16.90;;;3.43;;
8540;SDS011;4308;51.294;6.590;2022-08-11T06:58:35;15.20;;;3.40;;
8540;SDS011;4308;51.294;6.590;2022-08-11T07:01:12;10.77;;;3.10;;
8540;SDS011;4308;51.294;6.590;2022-08-11T07:03:43;4.03;;;1.90;;
8540;SDS011;4308;51.294;6.590;2022-08-11T07:09:24;6.43;;;2.60;;
8540;SDS011;4308;51.294;6.590;2022-08-11T07:12:00;6.77;;;2.57;;
8540;SDS011;4308;51.294;6.590;2022-08-11T07:14:32;6.23;;;2.97;;
8540;SDS011;4308;51.294;6.590;2022-08-11T07:17:05;10.90;;;4.57;;
8540;SDS011;4308;51.294;6.590;2022-08-11T07:19:36;6.07;;;2.67;;
8540;SDS011;4308;51.294;6.590;2022-08-11T07:22:07;2.70;;;2.30;;
8540;SDS011;4308;51.294;6.590;2022-08-11T07:24:38;4.33;;;2.80;;
8540;SDS011;4308;51.294;6.590;2022-08-11T07:27:29;3.60;;;2.47;;
8540;SDS011;4308;51.294;6.590;2022-08-11T07:30:04;4.17;;;2.50;;
8540;SDS011;4308;51.294;6.590;2022-08-11T07:32:36;7.63;;;2.80;;
8540;SDS011;4308;51.294;6.590;2022-08-11T07:35:11;4.97;;;3.17;;
8540;SDS011;4308;51.294;6.590;2022-08-11T07:37:46;5.00;;;2.60;;
8540;SDS011;4308;51.294;6.590;2022-08-11T07:40:28;5.03;;;2.70;;
8540;SDS011;4308;51.294;6.590;2022-08-11T07:42:56;3.33;;;2.10;;
8540;SDS011;4308;51.294;6.590;2022-08-11T07:45:26;3.37;;;2.27;;
8540;SDS011;4308;51.294;6.590;2022-08-11T07:47:57;3.03;;;2.30;;
8540;SDS011;4308;51.294;6.590;2022-08-11T07:50:26;2.97;;;2.20;;
8540;SDS011;4308;51.294;6.590;2022-08-11T07:52:57;4.07;;;2.67;;
8540;SDS011;4308;51.294;6.590;2022-08-11T07:55:25;4.43;;;2.83;;
8540;SDS011;4308;51.294;6.590;2022-08-11T07:58:13;5.70;;;2.97;;
8540;SDS011;4308;51.294;6.590;2022-08-11T08:00:50;9.47;;;3.50;;
8540;SDS011;4308;51.294;6.590;2022-08-11T08:03:20;7.23;;;2.53;;
8540;SDS011;4308;51.294;6.590;2022-08-11T08:05:48;3.23;;;2.67;;
8540;SDS011;4308;51.294;6.590;2022-08-11T08:08:16;4.90;;;2.87;;
8540;SDS011;4308;51.294;6.590;2022-08-11T08:10:44;4.67;;;2.43;;
8540;SDS011;4308;51.294;6.590;2022-08-11T08:13:11;5.37;;;2.87;;
8540;SDS011;4308;51.294;6.590;2022-08-11T08:15:40;7.60;;;3.00;;
8540;SDS011;4308;51.294;6.590;2022-08-11T08:18:08;3.50;;;2.37;;
8540;SDS011;4308;51.294;6.590;2022-08-11T08:20:54;7.23;;;2.93;;
8540;SDS011;4308;51.294;6.590;2022-08-11T08:23:25;3.40;;;2.57;;
8540;SDS011;4308;51.294;6.590;2022-08-11T08:25:58;9.80;;;2.77;;
8540;SDS011;4308;51.294;6.590;2022-08-11T08:28:27;6.57;;;2.30;;
8540;SDS011;4308;51.294;6.590;2022-08-11T08:30:58;3.90;;;2.30;;
8540;SDS011;4308;51.294;6.590;2022-08-11T08:33:27;2.40;;;2.20;;
8540;SDS011;4308;51.294;6.590;2022-08-11T08:36:03;4.83;;;2.30;;
8540;SDS011;4308;51.294;6.590;2022-08-11T08:38:31;5.20;;;2.53;;
8540;SDS011;4308;51.294;6.590;2022-08-11T08:40:59;3.47;;;2.43;;
8540;SDS011;4308;51.294;6.590;2022-08-11T08:43:27;3.57;;;2.43;;
8540;SDS011;4308;51.294;6.590;2022-08-11T08:45:55;3.93;;;2.43;;
8540;SDS011;4308;51.294;6.590;2022-08-11T08:48:23;5.00;;;2.40;;
8540;SDS011;4308;51.294;6.590;2022-08-11T08:50:55;3.87;;;2.97;;
8540;SDS011;4308;51.294;6.590;2022-08-11T08:53:29;3.60;;;2.23;;
8540;SDS011;4308;51.294;6.590;2022-08-11T08:56:00;3.00;;;1.90;;
8540;SDS011;4308;51.294;6.590;2022-08-11T08:58:29;5.47;;;2.77;;
8540;SDS011;4308;51.294;6.590;2022-08-11T09:00:59;3.53;;;2.47;;
8540;SDS011;4308;51.294;6.590;2022-08-11T09:03:27;3.93;;;2.47;;
8540;SDS011;4308;51.294;6.590;2022-08-11T09:06:14;2.30;;;2.10;;
8540;SDS011;4308;51.294;6.590;2022-08-11T09:08:43;7.33;;;2.43;;
8540;SDS011;4308;51.294;6.590;2022-08-11T09:11:11;4.70;;;2.53;;
8540;SDS011;4308;51.294;6.590;2022-08-11T09:13:40;4.27;;;2.43;;
8540;SDS011;4308;51.294;6.590;2022-08-11T09:16:08;2.40;;;2.20;;
8540;SDS011;4308;51.294;6.590;2022-08-11T09:18:37;4.90;;;2.70;;
8540;SDS011;4308;51.294;6.590;2022-08-11T09:21:07;7.60;;;3.27;;
8540;SDS011;4308;51.294;6.590;2022-08-11T09:23:34;3.00;;;2.33;;
8540;SDS011;4308;51.294;6.590;2022-08-11T09:26:22;5.53;;;2.20;;
8540;SDS011;4308;51.294;6.590;2022-08-11T09:28:57;3.07;;;2.50;;
8540;SDS011;4308;51.294;6.590;2022-08-11T09:31:28;3.30;;;2.23;;
8540;SDS011;4308;51.294;6.590;2022-08-11T09:34:04;3.00;;;2.17;;
8540;SDS011;4308;51.294;6.590;2022-08-11T09:36:31;6.27;;;2.40;;
8540;SDS011;4308;51.294;6.590;2022-08-11T09:38:59;4.33;;;2.23;;
8540;SDS011;4308;51.294;6.590;2022-08-11T09:41:30;4.77;;;3.07;;
8540;SDS011;4308;51.294;6.590;2022-08-11T09:44:18;5.10;;;2.80;;
8540;SDS011;4308;51.294;6.590;2022-08-11T09:46:47;2.73;;;2.17;;
8540;SDS011;4308;51.294;6.590;2022-08-11T09:49:18;2.73;;;2.20;;
8540;SDS011;4308;51.294;6.590;2022-08-11T09:51:48;3.00;;;2.47;;
8540;SDS011;4308;51.294;6.590;2022-08-11T09:54:31;6.43;;;2.60;;
8540;SDS011;4308;51.294;6.590;2022-08-11T09:56:58;6.10;;;1.97;;
8540;SDS011;4308;51.294;6.590;2022-08-11T09:59:31;6.53;;;2.70;;
8540;SDS011;4308;51.294;6.590;2022-08-11T10:02:01;4.50;;;2.27;;
8540;SDS011;4308;51.294;6.590;2022-08-11T10:04:34;4.00;;;2.37;;
8540;SDS011;4308;51.294;6.590;2022-08-11T10:07:04;3.73;;;2.13;;
8540;SDS011;4308;51.294;6.590;2022-08-11T10:12:07;4.67;;;2.60;;
8540;SDS011;4308;51.294;6.590;2022-08-11T10:14:36;2.83;;;2.43;;
8540;SDS011;4308;51.294;6.590;2022-08-11T10:17:10;5.27;;;2.60;;
8540;SDS011;4308;51.294;6.590;2022-08-11T10:19:39;4.47;;;2.27;;
8540;SDS011;4308;51.294;6.590;2022-08-11T10:22:08;2.93;;;2.40;;
8540;SDS011;4308;51.294;6.590;2022-08-11T10:24:36;5.27;;;1.80;;
8540;SDS011;4308;51.294;6.590;2022-08-11T10:27:04;2.10;;;1.87;;
8540;SDS011;4308;51.294;6.590;2022-08-11T10:29:32;3.27;;;2.20;;
8540;SDS011;4308;51.294;6.590;2022-08-11T10:32:11;3.47;;;2.47;;
8540;SDS011;4308;51.294;6.590;2022-08-11T10:34:39;2.93;;;2.47;;
8540;SDS011;4308;51.294;6.590;2022-08-11T10:37:20;3.60;;;2.13;;
8540;SDS011;4308;51.294;6.590;2022-08-11T10:39:48;2.37;;;2.13;;
8540;SDS011;4308;51.294;6.590;2022-08-11T10:42:17;2.40;;;2.20;;
8540;SDS011;4308;51.294;6.590;2022-08-11T10:45:05;4.00;;;2.43;;
8540;SDS011;4308;51.294;6.590;2022-08-11T10:47:33;2.80;;;2.60;;
8540;SDS011;4308;51.294;6.590;2022-08-11T10:50:01;5.50;;;2.87;;
8540;SDS011;4308;51.294;6.590;2022-08-11T10:52:37;5.93;;;2.47;;
8540;SDS011;4308;51.294;6.590;2022-08-11T10:55:11;5.63;;;2.70;;
8540;SDS011;4308;51.294;6.590;2022-08-11T10:57:39;5.93;;;2.40;;
8540;SDS011;4308;51.294;6.590;2022-08-11T11:00:08;5.10;;;2.30;;
8540;SDS011;4308;51.294;6.590;2022-08-11T11:02:36;3.40;;;2.10;;
8540;SDS011;4308;51.294;6.590;2022-08-11T11:05:10;3.50;;;2.40;;
8540;SDS011;4308;51.294;6.590;2022-08-11T11:07:49;6.13;;;2.50;;
8540;SDS011;4308;51.294;6.590;2022-08-11T11:10:19;4.50;;;2.53;;
8540;SDS011;4308;51.294;6.590;2022-08-11T11:12:48;2.50;;;2.30;;
8540;SDS011;4308;51.294;6.590;2022-08-11T11:15:18;3.43;;;2.63;;
8540;SDS011;4308;51.294;6.590;2022-08-11T11:17:49;2.97;;;2.27;;
8540;SDS011;4308;51.294;6.590;2022-08-11T11:20:25;2.77;;;2.10;;
8540;SDS011;4308;51.294;6.590;2022-08-11T11:23:09;10.33;;;2.37;;
8540;SDS011;4308;51.294;6.590;2022-08-11T11:33:32;2.58;;;2.28;;
8540;SDS011;4308;51.294;6.590;2022-08-11T11:36:27;5.35;;;2.83;;
8540;SDS011;4308;51.294;6.590;2022-08-11T11:38:57;5.13;;;2.23;;
8540;SDS011;4308;51.294;6.590;2022-08-11T11:41:25;3.08;;;2.15;;
8540;SDS011;4308;51.294;6.590;2022-08-11T11:43:56;3.03;;;2.30;;
8540;SDS011;4308;51.294;6.590;2022-08-11T11:46:28;3.25;;;2.40;;
8540;SDS011;4308;51.294;6.590;2022-08-11T11:48:56;3.57;;;2.53;;
8540;SDS011;4308;51.294;6.590;2022-08-11T11:51:24;3.88;;;2.35;;
8540;SDS011;4308;51.294;6.590;2022-08-11T11:53:52;5.90;;;2.30;;
8540;SDS011;4308;51.294;6.590;2022-08-11T11:56:21;3.07;;;2.50;;
8540;SDS011;4308;51.294;6.590;2022-08-11T11:58:49;4.03;;;2.17;;
8540;SDS011;4308;51.294;6.590;2022-08-11T12:01:19;5.53;;;2.80;;
8540;SDS011;4308;51.294;6.590;2022-08-11T12:03:48;5.17;;;2.97;;
8540;SDS011;4308;51.294;6.590;2022-08-11T12:06:17;9.20;;;2.97;;
8540;SDS011;4308;51.294;6.590;2022-08-11T12:08:47;6.73;;;2.97;;
8540;SDS011;4308;51.294;6.590;2022-08-11T12:11:15;4.72;;;2.88;;
8540;SDS011;4308;51.294;6.590;2022-08-11T12:13:44;4.23;;;2.63;;
8540;SDS011;4308;51.294;6.590;2022-08-11T12:16:15;7.33;;;2.80;;
8540;SDS011;4308;51.294;6.590;2022-08-11T12:19:00;3.33;;;2.53;;
8540;SDS011;4308;51.294;6.590;2022-08-11T12:21:29;3.28;;;2.50;;
8540;SDS011;4308;51.294;6.590;2022-08-11T12:23:57;3.33;;;2.57;;
8540;SDS011;4308;51.294;6.590;2022-08-11T12:26:30;3.30;;;3.00;;
8540;SDS011;4308;51.294;6.590;2022-08-11T12:28:58;3.05;;;2.58;;
8540;SDS011;4308;51.294;6.590;2022-08-11T12:31:30;2.70;;;2.50;;
8540;SDS011;4308;51.294;6.590;2022-08-11T12:33:59;4.07;;;2.53;;
8540;SDS011;4308;51.294;6.590;2022-08-11T12:36:26;4.65;;;2.45;;
8540;SDS011;4308;51.294;6.590;2022-08-11T12:38:54;3.83;;;2.23;;
8540;SDS011;4308;51.294;6.590;2022-08-11T12:41:23;3.03;;;2.55;;
8540;SDS011;4308;51.294;6.590;2022-08-11T12:43:51;3.20;;;2.55;;
8540;SDS011;4308;51.294;6.590;2022-08-11T12:46:30;4.63;;;3.00;;
8540;SDS011;4308;51.294;6.590;2022-08-11T12:48:59;3.47;;;2.85;;
8540;SDS011;4308;51.294;6.590;2022-08-11T12:51:31;6.28;;;2.45;;
8540;SDS011;4308;51.294;6.590;2022-08-11T12:57:06;2.83;;;2.50;;
8540;SDS011;4308;51.294;6.590;2022-08-11T12:59:37;7.60;;;2.83;;
8540;SDS011;4308;51.294;6.590;2022-08-11T13:02:05;3.85;;;2.75;;
8540;SDS011;4308;51.294;6.590;2022-08-11T13:04:34;5.10;;;2.50;;
8540;SDS011;4308;51.294;6.590;2022-08-11T13:07:04;2.53;;;2.20;;
8540;SDS011;4308;51.294;6.590;2022-08-11T13:09:32;3.63;;;2.75;;
8540;SDS011;4308;51.294;6.590;2022-08-11T13:12:00;3.30;;;2.70;;
8540;SDS011;4308;51.294;6.590;2022-08-11T13:14:28;3.45;;;2.60;;
8540;SDS011;4308;51.294;6.590;2022-08-11T13:16:56;2.35;;;1.90;;
8540;SDS011;4308;51.294;6.590;2022-08-11T13:19:24;7.65;;;2.80;;
8540;SDS011;4308;51.294;6.590;2022-08-11T13:21:51;3.92;;;2.65;;
8540;SDS011;4308;51.294;6.590;2022-08-11T13:24:19;3.83;;;2.75;;
8540;SDS011;4308;51.294;6.590;2022-08-11T13:26:48;3.35;;;2.60;;
8540;SDS011;4308;51.294;6.590;2022-08-11T13:29:20;4.25;;;2.70;;
8540;SDS011;4308;51.294;6.590;2022-08-11T13:31:48;2.72;;;2.15;;
8540;SDS011;4308;51.294;6.590;2022-08-11T13:34:17;7.13;;;2.50;;
8540;SDS011;4308;51.294;6.590;2022-08-11T13:36:47;2.70;;;2.30;;
8540;SDS011;4308;51.294;6.590;2022-08-11T13:39:15;4.30;;;2.35;;
8540;SDS011;4308;51.294;6.590;2022-08-11T13:41:43;3.03;;;2.72;;
8540;SDS011;4308;51.294;6.590;2022-08-11T13:44:12;5.45;;;2.75;;
8540;SDS011;4308;51.294;6.590;2022-08-11T13:46:43;2.78;;;2.50;;
8540;SDS011;4308;51.294;6.590;2022-08-11T13:49:11;3.47;;;2.65;;
8540;SDS011;4308;51.294;6.590;2022-08-11T13:51:42;3.33;;;2.85;;
8540;SDS011;4308;51.294;6.590;2022-08-11T13:54:17;4.32;;;2.85;;
8540;SDS011;4308;51.294;6.590;2022-08-11T13:56:49;4.55;;;3.60;;
8540;SDS011;4308;51.294;6.590;2022-08-11T13:59:24;5.80;;;2.75;;
8540;SDS011;4308;51.294;6.590;2022-08-11T14:01:57;4.10;;;2.50;;
8540;SDS011;4308;51.294;6.590;2022-08-11T14:04:55;2.70;;;2.50;;
8540;SDS011;4308;51.294;6.590;2022-08-11T14:07:24;2.30;;;2.10;;
8540;SDS011;4308;51.294;6.590;2022-08-11T14:09:57;3.88;;;2.35;;
8540;SDS011;4308;51.294;6.590;2022-08-11T14:12:26;3.78;;;2.35;;
8540;SDS011;4308;51.294;6.590;2022-08-11T14:15:04;6.88;;;2.40;;
8540;SDS011;4308;51.294;6.590;2022-08-11T14:17:34;4.00;;;2.40;;
8540;SDS011;4308;51.294;6.590;2022-08-11T14:20:15;3.00;;;2.80;;
8540;SDS011;4308;51.294;6.590;2022-08-11T14:23:03;5.65;;;3.22;;
8540;SDS011;4308;51.294;6.590;2022-08-11T14:25:32;7.28;;;2.63;;
8540;SDS011;4308;51.294;6.590;2022-08-11T14:28:19;5.63;;;2.80;;
8540;SDS011;4308;51.294;6.590;2022-08-11T14:31:07;2.83;;;2.47;;
8540;SDS011;4308;51.294;6.590;2022-08-11T14:33:35;4.85;;;2.60;;
8540;SDS011;4308;51.294;6.590;2022-08-11T14:36:24;2.45;;;2.25;;
8540;SDS011;4308;51.294;6.590;2022-08-11T14:38:52;4.00;;;2.25;;
8540;SDS011;4308;51.294;6.590;2022-08-11T14:41:21;1.77;;;1.67;;
8540;SDS011;4308;51.294;6.590;2022-08-11T14:43:49;4.65;;;2.20;;
8540;SDS011;4308;51.294;6.590;2022-08-11T14:46:38;3.55;;;2.40;;
8540;SDS011;4308;51.294;6.590;2022-08-11T14:49:06;3.75;;;2.55;;
8540;SDS011;4308;51.294;6.590;2022-08-11T14:51:34;2.55;;;2.35;;
8540;SDS011;4308;51.294;6.590;2022-08-11T14:54:02;2.25;;;2.08;;
8540;SDS011;4308;51.294;6.590;2022-08-11T14:56:32;4.20;;;2.72;;
8540;SDS011;4308;51.294;6.590;2022-08-11T14:59:00;2.63;;;2.15;;
8540;SDS011;4308;51.294;6.590;2022-08-11T15:01:28;2.85;;;2.40;;
8540;SDS011;4308;51.294;6.590;2022-08-11T15:03:56;2.65;;;2.42;;
8540;SDS011;4308;51.294;6.590;2022-08-11T15:06:44;2.97;;;2.30;;
8540;SDS011;4308;51.294;6.590;2022-08-11T15:09:12;4.68;;;2.70;;
8540;SDS011;4308;51.294;6.590;2022-08-11T15:11:40;4.10;;;2.58;;
8540;SDS011;4308;51.294;6.590;2022-08-11T15:14:08;6.70;;;2.50;;
8540;SDS011;4308;51.294;6.590;2022-08-11T15:16:39;4.35;;;2.50;;
8540;SDS011;4308;51.294;6.590;2022-08-11T15:19:07;3.93;;;2.87;;
8540;SDS011;4308;51.294;6.590;2022-08-11T15:21:35;3.25;;;2.70;;
8540;SDS011;4308;51.294;6.590;2022-08-11T15:24:02;2.97;;;2.10;;
8540;SDS011;4308;51.294;6.590;2022-08-11T15:26:37;2.65;;;2.42;;
8540;SDS011;4308;51.294;6.590;2022-08-11T15:29:05;4.72;;;2.42;;
8540;SDS011;4308;51.294;6.590;2022-08-11T15:31:33;3.90;;;2.50;;
8540;SDS011;4308;51.294;6.590;2022-08-11T15:34:03;5.80;;;2.92;;
8540;SDS011;4308;51.294;6.590;2022-08-11T15:36:31;2.78;;;2.53;;
8540;SDS011;4308;51.294;6.590;2022-08-11T15:39:01;5.90;;;2.35;;
8540;SDS011;4308;51.294;6.590;2022-08-11T15:41:34;2.83;;;1.92;;
8540;SDS011;4308;51.294;6.590;2022-08-11T15:44:06;3.95;;;2.60;;
8540;SDS011;4308;51.294;6.590;2022-08-11T15:46:40;3.42;;;2.28;;
8540;SDS011;4308;51.294;6.590;2022-08-11T15:49:12;4.13;;;2.53;;
8540;SDS011;4308;51.294;6.590;2022-08-11T15:52:02;3.72;;;2.80;;
8540;SDS011;4308;51.294;6.590;2022-08-11T15:54:31;2.40;;;2.20;;
8540;SDS011;4308;51.294;6.590;2022-08-11T15:56:58;2.95;;;2.22;;
8540;SDS011;4308;51.294;6.590;2022-08-11T15:59:27;9.55;;;2.70;;
8540;SDS011;4308;51.294;6.590;2022-08-11T16:02:15;4.30;;;2.53;;
8540;SDS011;4308;51.294;6.590;2022-08-11T16:04:44;4.45;;;2.63;;
8540;SDS011;4308;51.294;6.590;2022-08-11T16:07:14;4.30;;;2.63;;
8540;SDS011;4308;51.294;6.590;2022-08-11T16:09:55;4.32;;;2.97;;
8540;SDS011;4308;51.294;6.590;2022-08-11T16:12:29;3.45;;;2.45;;
8540;SDS011;4308;51.294;6.590;2022-08-11T16:15:01;3.30;;;2.60;;
8540;SDS011;4308;51.294;6.590;2022-08-11T16:17:30;6.47;;;2.67;;
8540;SDS011;4308;51.294;6.590;2022-08-11T16:20:01;2.92;;;2.58;;
8540;SDS011;4308;51.294;6.590;2022-08-11T16:22:29;5.75;;;2.70;;
8540;SDS011;4308;51.294;6.590;2022-08-11T16:24:59;8.00;;;3.30;;
8540;SDS011;4308;51.294;6.590;2022-08-11T16:27:52;5.00;;;2.67;;
8540;SDS011;4308;51.294;6.590;2022-08-11T16:30:21;4.60;;;3.00;;
8540;SDS011;4308;51.294;6.590;2022-08-11T16:32:49;4.53;;;2.95;;
8540;SDS011;4308;51.294;6.590;2022-08-11T16:35:18;7.28;;;2.60;;
8540;SDS011;4308;51.294;6.590;2022-08-11T16:37:46;3.10;;;2.78;;
8540;SDS011;4308;51.294;6.590;2022-08-11T16:40:15;3.45;;;2.85;;
8540;SDS011;4308;51.294;6.590;2022-08-11T16:42:44;4.07;;;2.50;;
8540;SDS011;4308;51.294;6.590;2022-08-11T16:45:33;4.38;;;2.75;;
8540;SDS011;4308;51.294;6.590;2022-08-11T16:48:01;9.07;;;3.05;;
8540;SDS011;4308;51.294;6.590;2022-08-11T16:50:49;3.20;;;2.40;;
8540;SDS011;4308;51.294;6.590;2022-08-11T16:53:16;2.90;;;2.60;;
8540;SDS011;4308;51.294;6.590;2022-08-11T16:55:45;3.92;;;2.65;;
8540;SDS011;4308;51.294;6.590;2022-08-11T16:58:19;2.42;;;2.22;;
8540;SDS011;4308;51.294;6.590;2022-08-11T17:00:47;4.53;;;2.80;;
8540;SDS011;4308;51.294;6.590;2022-08-11T17:03:16;2.67;;;2.47;;
8540;SDS011;4308;51.294;6.590;2022-08-11T17:05:46;5.67;;;2.87;;
8540;SDS011;4308;51.294;6.590;2022-08-11T17:08:25;4.47;;;2.70;;
8540;SDS011;4308;51.294;6.590;2022-08-11T17:10:56;4.35;;;2.38;;
8540;SDS011;4308;51.294;6.590;2022-08-11T17:13:34;4.23;;;2.43;;
8540;SDS011;4308;51.294;6.590;2022-08-11T17:16:03;3.05;;;2.30;;
8540;SDS011;4308;51.294;6.590;2022-08-11T17:18:55;4.95;;;2.40;;
8540;SDS011;4308;51.294;6.590;2022-08-11T17:24:00;8.35;;;2.30;;
8540;SDS011;4308;51.294;6.590;2022-08-11T17:26:41;2.80;;;2.53;;
8540;SDS011;4308;51.294;6.590;2022-08-11T17:29:09;6.93;;;2.60;;
8540;SDS011;4308;51.294;6.590;2022-08-11T17:31:37;3.42;;;2.28;;
8540;SDS011;4308;51.294;6.590;2022-08-11T17:34:05;2.92;;;2.53;;
8540;SDS011;4308;51.294;6.590;2022-08-11T17:36:34;4.50;;;2.60;;
8540;SDS011;4308;51.294;6.590;2022-08-11T17:39:09;2.58;;;2.38;;
8540;SDS011;4308;51.294;6.590;2022-08-11T17:41:38;6.63;;;2.38;;
8540;SDS011;4308;51.294;6.590;2022-08-11T17:44:06;6.18;;;2.30;;
8540;SDS011;4308;51.294;6.590;2022-08-11T17:46:34;4.87;;;2.40;;
8540;SDS011;4308;51.294;6.590;2022-08-11T17:49:04;3.07;;;2.80;;
8540;SDS011;4308;51.294;6.590;2022-08-11T17:51:33;5.32;;;2.80;;
8540;SDS011;4308;51.294;6.590;2022-08-11T17:54:01;5.33;;;2.63;;
8540;SDS011;4308;51.294;6.590;2022-08-11T17:56:49;3.38;;;2.55;;
8540;SDS011;4308;51.294;6.590;2022-08-11T17:59:18;4.07;;;2.73;;
8540;SDS011;4308;51.294;6.590;2022-08-11T18:01:46;3.65;;;2.45;;
8540;SDS011;4308;51.294;6.590;2022-08-11T18:04:19;3.50;;;2.57;;
8540;SDS011;4308;51.294;6.590;2022-08-11T18:06:47;4.57;;;2.53;;
8540;SDS011;4308;51.294;6.590;2022-08-11T18:09:20;8.87;;;2.20;;
8540;SDS011;4308;51.294;6.590;2022-08-11T18:11:49;3.07;;;2.40;;
8540;SDS011;4308;51.294;6.590;2022-08-11T18:14:38;3.70;;;2.70;;
8540;SDS011;4308;51.294;6.590;2022-08-11T18:17:06;2.40;;;2.20;;
8540;SDS011;4308;51.294;6.590;2022-08-11T18:19:34;3.83;;;2.40;;
8540;SDS011;4308;51.294;6.590;2022-08-11T18:22:09;4.63;;;2.60;;
8540;SDS011;4308;51.294;6.590;2022-08-11T18:24:50;6.40;;;2.90;;
8540;SDS011;4308;51.294;6.590;2022-08-11T18:27:20;3.07;;;2.57;;
8540;SDS011;4308;51.294;6.590;2022-08-11T18:29:49;3.00;;;2.33;;
8540;SDS011;4308;51.294;6.590;2022-08-11T18:32:17;3.90;;;2.50;;
8540;SDS011;4308;51.294;6.590;2022-08-11T18:34:59;4.93;;;2.93;;